createdAt,value
2017-08-07T00:00:56.435Z,97165.45
2017-08-07T00:03:22.323Z,97164.80
2017-08-07T00:05:48.148Z,97174.95
2017-08-07T00:08:14.003Z,97150.14
2017-08-07T00:10:39.812Z,97151.45
2017-08-07T00:13:05.667Z,97145.17
2017-08-07T00:15:31.493Z,97147.43
2017-08-07T00:17:57.339Z,97146.58
2017-08-07T00:20:23.311Z,97145.69
2017-08-07T00:22:49.185Z,97146.38
2017-08-07T00:25:15.026Z,97140.16
2017-08-07T00:27:40.975Z,97138.45
2017-08-07T00:30:06.795Z,97135.00
2017-08-07T00:32:32.735Z,97138.90
2017-08-07T00:34:58.595Z,97136.48
2017-08-07T00:37:24.531Z,97137.56
2017-08-07T00:39:50.444Z,97139.22
2017-08-07T00:42:16.284Z,97138.67
2017-08-07T00:44:42.150Z,97133.36
2017-08-07T00:47:08.185Z,97137.80
2017-08-07T00:49:34.095Z,97132.98
2017-08-07T00:52:00.049Z,97130.22
2017-08-07T00:54:25.979Z,97128.95
2017-08-07T00:56:51.835Z,97125.96
2017-08-07T00:59:17.704Z,97126.66
2017-08-07T01:01:43.614Z,97121.91
2017-08-07T01:04:09.458Z,97119.76
2017-08-07T01:06:35.331Z,97112.46
2017-08-07T01:09:01.159Z,97121.86
2017-08-07T01:11:27.027Z,97120.03
2017-08-07T01:13:52.918Z,97116.90
2017-08-07T01:16:18.846Z,97117.78
2017-08-07T01:18:44.777Z,97106.43
2017-08-07T01:21:10.642Z,97101.23
2017-08-07T01:23:36.447Z,97102.58
2017-08-07T01:26:02.304Z,97101.36
2017-08-07T01:28:28.165Z,97097.65
2017-08-07T01:30:54.170Z,97100.61
2017-08-07T01:33:20.109Z,97097.97
2017-08-07T01:35:45.974Z,97090.41
2017-08-07T01:38:11.807Z,97089.39
2017-08-07T01:40:37.703Z,97089.81
2017-08-07T01:43:03.571Z,97090.53
2017-08-07T01:45:29.479Z,97084.02
2017-08-07T01:47:55.391Z,97084.09
2017-08-07T01:50:21.229Z,97086.95
2017-08-07T01:52:47.092Z,97081.34
2017-08-07T01:55:12.963Z,97084.45
2017-08-07T01:57:38.929Z,97082.78
2017-08-07T02:00:04.800Z,97076.52
2017-08-07T02:02:30.716Z,97082.58
2017-08-07T02:04:56.551Z,97077.20
2017-08-07T02:07:22.422Z,97084.78
2017-08-07T02:09:48.250Z,97073.95
2017-08-07T02:12:14.079Z,97072.80
2017-08-07T02:14:39.913Z,97072.93
2017-08-07T02:17:05.851Z,97067.67
2017-08-07T02:19:31.719Z,97047.03
2017-08-07T02:21:57.560Z,97067.28
2017-08-07T02:24:23.389Z,97065.71
2017-08-07T02:26:49.371Z,97070.27
2017-08-07T02:29:15.189Z,97064.67
2017-08-07T02:31:41.019Z,97061.84
2017-08-07T02:34:06.869Z,97062.64
2017-08-07T02:36:32.880Z,97064.20
2017-08-07T02:38:58.699Z,97061.52
2017-08-07T02:41:24.548Z,97062.89
2017-08-07T02:43:50.451Z,97066.06
2017-08-07T02:46:16.268Z,97060.42
2017-08-07T02:48:42.222Z,97058.17
2017-08-07T02:51:08.122Z,97050.86
2017-08-07T02:53:33.951Z,97047.94
2017-08-07T02:55:59.803Z,97040.13
2017-08-07T02:58:25.649Z,97040.27
2017-08-07T03:00:51.496Z,97040.11
2017-08-07T03:03:17.480Z,97036.19
2017-08-07T03:05:44.283Z,97046.80
2017-08-07T03:08:10.155Z,97046.86
2017-08-07T03:10:36.176Z,97044.54
2017-08-07T03:13:02.035Z,97046.07
2017-08-07T03:15:27.978Z,97045.05
2017-08-07T03:17:53.829Z,97043.59
2017-08-07T03:20:19.688Z,97038.55
2017-08-07T03:22:45.733Z,97040.85
2017-08-07T03:25:11.619Z,97045.93
2017-08-07T03:27:37.518Z,97034.05
2017-08-07T03:30:03.365Z,97032.09
2017-08-07T03:32:29.330Z,97039.48
2017-08-07T03:34:55.170Z,97032.14
2017-08-07T03:37:21.210Z,97026.64
2017-08-07T03:39:47.099Z,97028.60
2017-08-07T03:42:12.987Z,97029.62
2017-08-07T03:44:38.887Z,97031.62
2017-08-07T03:47:04.851Z,97036.55
2017-08-07T03:49:30.663Z,97029.44
2017-08-07T03:51:56.546Z,97020.85
2017-08-07T03:54:22.467Z,97019.38
2017-08-07T03:56:48.282Z,97017.99
2017-08-07T03:59:14.121Z,97016.28
2017-08-07T04:01:39.937Z,97013.42
2017-08-07T04:04:05.722Z,97014.22
2017-08-07T04:06:31.565Z,97005.40
2017-08-07T04:08:57.458Z,97006.05
2017-08-07T04:11:23.313Z,97008.14
2017-08-07T04:13:49.308Z,97007.41
2017-08-07T04:16:15.288Z,97008.66
2017-08-07T04:18:41.149Z,97002.34
2017-08-07T04:21:07.148Z,97003.02
2017-08-07T04:23:32.986Z,97002.71
2017-08-07T04:25:58.997Z,96998.97
2017-08-07T04:28:24.851Z,97003.22
2017-08-07T04:30:50.845Z,97008.00
2017-08-07T04:33:16.666Z,97009.73
2017-08-07T04:35:42.729Z,97007.06
2017-08-07T04:38:08.635Z,97005.17
2017-08-07T04:40:34.548Z,97010.51
2017-08-07T04:43:00.349Z,97010.67
2017-08-07T04:45:26.165Z,97011.42
2017-08-07T04:47:51.956Z,97009.51
2017-08-07T04:50:17.789Z,97007.13
2017-08-07T04:52:43.577Z,96999.95
2017-08-07T04:55:09.377Z,96996.31
2017-08-07T04:57:35.270Z,96991.14
2017-08-07T05:00:01.192Z,97001.12
2017-08-07T05:02:27.035Z,96995.33
2017-08-07T05:04:52.873Z,96998.66
2017-08-07T05:07:18.658Z,96993.69
2017-08-07T05:09:44.533Z,97006.28
2017-08-07T05:12:10.337Z,96992.04
2017-08-07T05:14:36.110Z,96995.22
2017-08-07T05:17:02.035Z,96996.82
2017-08-07T05:19:27.944Z,96997.34
2017-08-07T05:21:53.792Z,96981.55
2017-08-07T05:24:19.652Z,96994.23
2017-08-07T05:26:45.473Z,96990.82
2017-08-07T05:29:11.248Z,96994.41
2017-08-07T05:31:37.020Z,96988.20
2017-08-07T05:34:02.884Z,96988.80
2017-08-07T05:36:28.776Z,96993.89
2017-08-07T05:38:54.552Z,96990.19
2017-08-07T05:41:20.367Z,96988.20
2017-08-07T05:43:46.178Z,96983.71
2017-08-07T05:46:12.041Z,96986.85
2017-08-07T05:48:37.876Z,96982.51
2017-08-07T05:51:03.822Z,96989.38
2017-08-07T05:53:29.640Z,96987.11
2017-08-07T05:55:55.465Z,96987.48
2017-08-07T05:58:21.279Z,96990.69
2017-08-07T06:00:47.090Z,96990.08
2017-08-07T06:03:12.980Z,96987.53
2017-08-07T06:05:38.788Z,96985.71
2017-08-07T06:08:04.608Z,96985.31
2017-08-07T06:10:30.417Z,96987.14
2017-08-07T06:12:56.251Z,96981.71
2017-08-07T06:15:22.069Z,96983.28
2017-08-07T06:17:48.063Z,96982.43
2017-08-07T06:20:13.860Z,96982.11
2017-08-07T06:22:39.673Z,96980.84
2017-08-07T06:25:06.556Z,96973.11
2017-08-07T06:27:32.368Z,96978.75
2017-08-07T06:29:58.160Z,96975.42
2017-08-07T06:32:24.028Z,96978.41
2017-08-07T06:34:49.845Z,96971.43
2017-08-07T06:37:15.677Z,96972.25
2017-08-07T06:39:41.529Z,96970.59
2017-08-07T06:42:07.414Z,96971.91
2017-08-07T06:44:33.236Z,96964.75
2017-08-07T06:46:59.059Z,96958.35
2017-08-07T06:49:24.869Z,96971.00
2017-08-07T06:51:50.752Z,96958.42
2017-08-07T06:54:16.589Z,96961.61
2017-08-07T06:56:42.393Z,96961.46
2017-08-07T06:59:08.235Z,96968.50
2017-08-07T07:01:34.040Z,96965.47
2017-08-07T07:03:59.893Z,96970.45
2017-08-07T07:06:26.101Z,96964.75
2017-08-07T07:08:51.905Z,96968.84
2017-08-07T07:11:17.748Z,96968.89
2017-08-07T07:13:43.557Z,96959.52
2017-08-07T07:16:09.424Z,96958.30
2017-08-07T07:18:35.299Z,96957.79
2017-08-07T07:21:01.300Z,96950.55
2017-08-07T07:23:27.205Z,96957.81
2017-08-07T07:25:53.072Z,96946.02
2017-08-07T07:28:18.897Z,96947.52
2017-08-07T07:30:44.932Z,96948.22
2017-08-07T07:33:10.844Z,96947.55
2017-08-07T07:35:36.652Z,96946.94
2017-08-07T07:38:02.508Z,96937.87
2017-08-07T07:40:28.370Z,96937.05
2017-08-07T07:42:54.335Z,96929.66
2017-08-07T07:45:20.261Z,96928.44
2017-08-07T07:47:46.078Z,96928.55
2017-08-07T07:50:11.894Z,96924.97
2017-08-07T07:52:37.722Z,96921.98
2017-08-07T07:55:03.522Z,96921.11
2017-08-07T07:57:29.331Z,96922.05
2017-08-07T07:59:55.224Z,96912.91
2017-08-07T08:02:21.045Z,96922.16
2017-08-07T08:04:46.862Z,96917.02
2017-08-07T08:07:12.769Z,96906.98
2017-08-07T08:09:38.633Z,96907.89
2017-08-07T08:12:04.545Z,96898.84
2017-08-07T08:14:30.340Z,96896.29
2017-08-07T08:16:56.144Z,96891.36
2017-08-07T08:19:22.317Z,96894.17
2017-08-07T08:21:48.152Z,96901.66
2017-08-07T08:24:13.967Z,96897.51
2017-08-07T08:26:39.797Z,96890.20
2017-08-07T08:29:05.591Z,96884.48
2017-08-07T08:31:31.511Z,96892.53
2017-08-07T08:33:57.497Z,96887.58
2017-08-07T08:36:23.346Z,96889.28
2017-08-07T08:38:49.266Z,96885.48
2017-08-07T08:41:15.155Z,96886.80
2017-08-07T08:43:41.002Z,96885.59
2017-08-07T08:46:06.809Z,96883.28
2017-08-07T08:48:32.626Z,96882.37
2017-08-07T08:50:58.474Z,96886.32
2017-08-07T08:53:24.391Z,96869.40
2017-08-07T08:55:50.299Z,96868.74
2017-08-07T08:58:16.319Z,96868.11
2017-08-07T09:00:42.163Z,96878.47
2017-08-07T09:03:08.120Z,96871.09
2017-08-07T09:05:33.940Z,96869.08
2017-08-07T09:07:59.775Z,96861.09
2017-08-07T09:10:25.635Z,96868.23
2017-08-07T09:12:51.554Z,96864.18
2017-08-07T09:15:17.436Z,96856.26
2017-08-07T09:17:43.256Z,96856.94
2017-08-07T09:20:09.081Z,96854.81
2017-08-07T09:22:34.929Z,96854.32
2017-08-07T09:25:00.785Z,96851.80
2017-08-07T09:27:26.671Z,96859.05
2017-08-07T09:29:52.557Z,96852.59
2017-08-07T09:32:18.448Z,96852.25
2017-08-07T09:34:44.416Z,96856.77
2017-08-07T09:37:10.235Z,96858.85
2017-08-07T09:39:36.070Z,96855.20
2017-08-07T09:42:01.993Z,96854.37
2017-08-07T09:44:27.847Z,96855.33
2017-08-07T09:46:54.678Z,96856.09
2017-08-07T09:49:20.555Z,96846.01
2017-08-07T09:51:46.370Z,96849.55
2017-08-07T09:54:12.180Z,96845.43
2017-08-07T09:56:38.007Z,96849.16
2017-08-07T09:59:04.074Z,96845.14
2017-08-07T10:01:30.049Z,96846.01
2017-08-07T10:03:55.912Z,96837.73
2017-08-07T10:06:21.811Z,96838.25
2017-08-07T10:08:47.662Z,96837.20
2017-08-07T10:11:13.476Z,96840.22
2017-08-07T10:13:39.387Z,96837.19
2017-08-07T10:16:05.405Z,96837.54
2017-08-07T10:18:31.332Z,96849.25
2017-08-07T10:20:57.329Z,96833.44
2017-08-07T10:23:23.189Z,96831.31
2017-08-07T10:25:49.067Z,96831.73
2017-08-07T10:28:14.916Z,96829.59
2017-08-07T10:30:40.851Z,96836.14
2017-08-07T10:33:06.654Z,96822.36
2017-08-07T10:35:32.504Z,96821.31
2017-08-07T10:37:58.357Z,96826.86
2017-08-07T10:40:24.299Z,96811.77
2017-08-07T10:42:50.208Z,96816.69
2017-08-07T10:45:16.172Z,96816.38
2017-08-07T10:47:42.088Z,96810.19
2017-08-07T10:50:08.001Z,96818.11
2017-08-07T10:52:33.837Z,96811.38
2017-08-07T10:54:59.751Z,96795.20
2017-08-07T10:57:25.648Z,96789.44
2017-08-07T10:59:51.474Z,96797.73
2017-08-07T11:02:17.331Z,96798.84
2017-08-07T11:04:43.197Z,96794.05
2017-08-07T11:07:09.263Z,96794.98
2017-08-07T11:09:35.149Z,96781.12
2017-08-07T11:12:00.979Z,96785.14
2017-08-07T11:14:26.835Z,96781.20
2017-08-07T11:16:52.664Z,96787.31
2017-08-07T11:19:18.515Z,96770.67
2017-08-07T11:21:44.350Z,96779.28
2017-08-07T11:24:10.303Z,96771.98
2017-08-07T11:26:36.312Z,96772.31
2017-08-07T11:29:02.203Z,96766.81
2017-08-07T11:31:28.265Z,96771.47
2017-08-07T11:33:54.236Z,96763.75
2017-08-07T11:36:20.083Z,96767.05
2017-08-07T11:38:46.003Z,96757.94
2017-08-07T11:41:11.879Z,96756.14
2017-08-07T11:43:37.778Z,96761.37
2017-08-07T11:46:03.655Z,96757.66
2017-08-07T11:48:29.501Z,96752.21
2017-08-07T11:50:55.356Z,96755.61
2017-08-07T11:53:21.215Z,96751.98
2017-08-07T11:55:47.203Z,96753.63
2017-08-07T11:58:13.090Z,96744.77
2017-08-07T12:00:39.020Z,96740.71
2017-08-07T12:03:04.891Z,96735.88
2017-08-07T12:05:30.890Z,96734.62
2017-08-07T12:07:56.776Z,96738.16
2017-08-07T12:10:22.733Z,96730.72
2017-08-07T12:12:48.814Z,96732.42
2017-08-07T12:15:14.707Z,96722.73
2017-08-07T12:17:40.621Z,96721.53
2017-08-07T12:20:06.495Z,96721.62
2017-08-07T12:22:32.379Z,96726.00
2017-08-07T12:24:58.298Z,96716.64
2017-08-07T12:27:24.239Z,96721.69
2017-08-07T12:29:50.125Z,96713.81
2017-08-07T12:32:16.154Z,96708.06
2017-08-07T12:34:42.087Z,96714.07
2017-08-07T12:37:08.015Z,96711.34
2017-08-07T12:39:33.927Z,96705.83
2017-08-07T12:41:59.856Z,96695.19
2017-08-07T12:44:25.884Z,96693.00
2017-08-07T12:46:52.637Z,96694.19
2017-08-07T12:49:18.522Z,96689.67
2017-08-07T12:51:44.543Z,96687.17
2017-08-07T12:54:10.558Z,96682.79
2017-08-07T12:56:36.805Z,96683.28
2017-08-07T12:59:02.889Z,96678.08
2017-08-07T13:01:28.830Z,96685.51
2017-08-07T13:03:54.845Z,96685.55
2017-08-07T13:06:20.763Z,96688.45
2017-08-07T13:08:46.631Z,96687.52
2017-08-07T13:11:12.468Z,96680.16
2017-08-07T13:13:38.356Z,96680.42
2017-08-07T13:16:04.375Z,96689.86
2017-08-07T13:18:30.438Z,96680.15
2017-08-07T13:20:56.397Z,96679.47
2017-08-07T13:23:22.427Z,96668.72
2017-08-07T13:25:48.302Z,96678.02
2017-08-07T13:28:14.260Z,96664.92
2017-08-07T13:30:40.318Z,96661.07
2017-08-07T13:33:06.352Z,96664.42
2017-08-07T13:35:32.339Z,96662.78
2017-08-07T13:37:58.185Z,96663.78
2017-08-07T13:40:24.090Z,96659.27
2017-08-07T13:42:50.072Z,96653.81
2017-08-07T13:45:16.021Z,96655.06
2017-08-07T13:47:42.072Z,96658.67
2017-08-07T13:50:08.148Z,96651.39
2017-08-07T13:52:34.095Z,96640.16
2017-08-07T13:54:59.950Z,96645.73
2017-08-07T13:57:25.940Z,96641.41
2017-08-07T13:59:51.839Z,96636.27
2017-08-07T14:02:17.766Z,96631.60
2017-08-07T14:04:43.820Z,96634.19
2017-08-07T14:07:09.818Z,96635.84
2017-08-07T14:09:35.644Z,96636.16
2017-08-07T14:12:01.619Z,96631.89
2017-08-07T14:14:27.504Z,96626.89
2017-08-07T14:16:53.347Z,96626.83
2017-08-07T14:19:19.242Z,96619.67
2017-08-07T14:21:45.163Z,96619.44
2017-08-07T14:24:11.027Z,96626.19
2017-08-07T14:26:36.844Z,96613.62
2017-08-07T14:29:02.743Z,96610.88
2017-08-07T14:31:28.824Z,96608.31
2017-08-07T14:33:54.767Z,96604.06
2017-08-07T14:36:20.730Z,96604.77
2017-08-07T14:38:46.582Z,96612.52
2017-08-07T14:41:12.613Z,96604.20
2017-08-07T14:43:38.546Z,96606.13
2017-08-07T14:46:04.459Z,96598.65
2017-08-07T14:48:30.323Z,96594.71
2017-08-07T14:50:56.212Z,96594.66
2017-08-07T14:53:22.163Z,96598.97
2017-08-07T14:55:48.083Z,96595.34
2017-08-07T14:58:13.907Z,96594.58
2017-08-07T15:00:39.756Z,96595.98
2017-08-07T15:03:05.628Z,96589.14
2017-08-07T15:05:31.551Z,96589.84
2017-08-07T15:07:57.379Z,96584.22
2017-08-07T15:10:23.255Z,96578.19
2017-08-07T15:12:49.103Z,96576.03
2017-08-07T15:15:14.936Z,96574.47
2017-08-07T15:17:40.828Z,96579.67
2017-08-07T15:20:06.668Z,96569.42
2017-08-07T15:22:32.529Z,96569.47
2017-08-07T15:24:58.364Z,96577.48
2017-08-07T15:27:24.394Z,96576.67
2017-08-07T15:29:50.231Z,96576.05
2017-08-07T15:32:16.239Z,96576.71
2017-08-07T15:34:42.095Z,96568.22
2017-08-07T15:37:08.095Z,96561.05
2017-08-07T15:39:34.102Z,96551.16
2017-08-07T15:42:00.199Z,96550.74
2017-08-07T15:44:26.060Z,96554.53
2017-08-07T15:46:52.234Z,96549.78
2017-08-07T15:49:18.156Z,96550.17
2017-08-07T15:51:43.982Z,96550.95
2017-08-07T15:54:09.814Z,96548.52
2017-08-07T15:56:35.640Z,96550.76
2017-08-07T15:59:01.485Z,96542.73
2017-08-07T16:01:27.404Z,96552.61
2017-08-07T16:03:53.261Z,96554.92
2017-08-07T16:06:19.107Z,96538.35
2017-08-07T16:08:44.961Z,96534.69
2017-08-07T16:11:10.782Z,96527.61
2017-08-07T16:13:36.791Z,96525.31
2017-08-07T16:16:02.609Z,96525.33
2017-08-07T16:18:28.451Z,96520.45
2017-08-07T16:20:54.379Z,96519.56
2017-08-07T16:23:20.204Z,96517.52
2017-08-07T16:25:46.042Z,96510.27
2017-08-07T16:28:12.155Z,96495.37
2017-08-07T16:30:38.072Z,96513.66
2017-08-07T16:33:03.977Z,96519.39
2017-08-07T16:35:29.887Z,96510.52
2017-08-07T16:37:55.762Z,96521.41
2017-08-07T16:40:21.602Z,96521.16
2017-08-07T16:42:47.428Z,96514.70
2017-08-07T16:45:13.278Z,96513.22
2017-08-07T16:47:39.299Z,96512.72
2017-08-07T16:50:05.164Z,96509.84
2017-08-07T16:52:31.111Z,96508.48
2017-08-07T16:54:56.967Z,96502.27
2017-08-07T16:57:22.858Z,96501.22
2017-08-07T16:59:48.703Z,96500.94
2017-08-07T17:02:14.541Z,96500.28
2017-08-07T17:04:40.439Z,96489.19
2017-08-07T17:07:06.460Z,96491.70
2017-08-07T17:09:32.379Z,96487.30
2017-08-07T17:11:58.267Z,96493.67
2017-08-07T17:14:24.299Z,96485.75
2017-08-07T17:16:50.115Z,96491.73
2017-08-07T17:19:15.948Z,96488.20
2017-08-07T17:21:41.991Z,96484.05
2017-08-07T17:24:07.892Z,96481.53
2017-08-07T17:26:33.725Z,96478.30
2017-08-07T17:28:59.568Z,96478.91
2017-08-07T17:31:25.443Z,96481.58
2017-08-07T17:33:51.461Z,96479.14
2017-08-07T17:36:17.501Z,96468.41
2017-08-07T17:38:43.351Z,96471.77
2017-08-07T17:41:09.339Z,96476.38
2017-08-07T17:43:35.272Z,96473.55
2017-08-07T17:46:01.194Z,96466.36
2017-08-07T17:48:27.223Z,96468.00
2017-08-07T17:50:53.178Z,96467.42
2017-08-07T17:53:19.004Z,96461.42
2017-08-07T17:55:44.810Z,96460.28
2017-08-07T17:58:10.659Z,96457.19
2017-08-07T18:00:36.749Z,96459.42
2017-08-07T18:03:02.637Z,96446.92
2017-08-07T18:05:28.527Z,96451.59
2017-08-07T18:07:54.356Z,96447.20
2017-08-07T18:10:20.172Z,96454.44
2017-08-07T18:12:46.046Z,96453.02
2017-08-07T18:15:12.004Z,96451.27
2017-08-07T18:17:37.831Z,96452.64
2017-08-07T18:20:03.667Z,96455.39
2017-08-07T18:22:29.458Z,96458.71
2017-08-07T18:24:55.295Z,96457.83
2017-08-07T18:27:21.296Z,96455.20
2017-08-07T18:29:47.170Z,96451.76
2017-08-07T18:32:13.170Z,96452.94
2017-08-07T18:34:39.171Z,96451.64
2017-08-07T18:37:05.035Z,96450.30
2017-08-07T18:39:30.927Z,96445.46
2017-08-07T18:41:56.820Z,96443.23
2017-08-07T18:44:22.662Z,96441.59
2017-08-07T18:46:48.664Z,96437.95
2017-08-07T18:49:14.487Z,96433.78
2017-08-07T18:51:40.282Z,96437.65
2017-08-07T18:54:06.134Z,96432.39
2017-08-07T18:56:31.967Z,96437.34
2017-08-07T18:58:57.973Z,96440.55
2017-08-07T19:01:23.848Z,96431.51
2017-08-07T19:03:49.806Z,96437.02
2017-08-07T19:06:15.631Z,96428.89
2017-08-07T19:08:41.461Z,96435.88
2017-08-07T19:11:07.256Z,96436.81
2017-08-07T19:13:33.062Z,96443.53
2017-08-07T19:15:58.905Z,96445.61
2017-08-07T19:18:24.751Z,96444.21
2017-08-07T19:20:50.566Z,96441.91
2017-08-07T19:23:16.628Z,96441.50
2017-08-07T19:25:42.517Z,96434.41
2017-08-07T19:28:08.359Z,96439.05
2017-08-07T19:30:34.221Z,96438.08
2017-08-07T19:33:00.039Z,96444.77
2017-08-07T19:35:26.031Z,96453.72
2017-08-07T19:37:51.851Z,96457.11
2017-08-07T19:40:17.712Z,96454.11
2017-08-07T19:42:43.731Z,96451.55
2017-08-07T19:45:09.592Z,96447.98
2017-08-07T19:47:35.532Z,96456.69
2017-08-07T19:50:01.364Z,96458.58
2017-08-07T19:52:27.219Z,96454.95
2017-08-07T19:54:53.039Z,96451.63
2017-08-07T19:57:18.891Z,96449.87
2017-08-07T19:59:44.915Z,96451.96
2017-08-07T20:02:10.908Z,96448.72
2017-08-07T20:04:37.764Z,96449.87
2017-08-07T20:07:03.776Z,96457.84
2017-08-07T20:09:29.748Z,96456.08
2017-08-07T20:11:55.622Z,96459.84
2017-08-07T20:14:21.441Z,96453.03
2017-08-07T20:16:47.508Z,96445.81
2017-08-07T20:19:13.400Z,96440.50
2017-08-07T20:21:39.307Z,96441.98
2017-08-07T20:24:05.344Z,96432.63
2017-08-07T20:26:31.260Z,96431.41
2017-08-07T20:28:57.124Z,96417.23
2017-08-07T20:31:23.000Z,96424.91
2017-08-07T20:33:48.911Z,96438.31
2017-08-07T20:36:14.776Z,96430.70
2017-08-07T20:38:40.634Z,96421.52
2017-08-07T20:41:06.692Z,96407.28
2017-08-07T20:43:32.648Z,96417.39
2017-08-07T20:45:58.486Z,96416.91
2017-08-07T20:48:24.315Z,96421.80
2017-08-07T20:50:50.372Z,96418.70
2017-08-07T20:53:16.371Z,96419.88
2017-08-07T20:55:42.260Z,96425.49
2017-08-07T20:58:08.131Z,96427.77
2017-08-07T21:00:33.996Z,96425.63
2017-08-07T21:02:59.891Z,96429.38
2017-08-07T21:05:25.821Z,96430.96
2017-08-07T21:07:51.724Z,96427.20
2017-08-07T21:10:17.667Z,96432.64
2017-08-07T21:12:43.506Z,96435.92
2017-08-07T21:15:09.332Z,96433.70
2017-08-07T21:17:35.220Z,96423.72
2017-08-07T21:20:01.135Z,96422.03
2017-08-07T21:22:26.976Z,96420.20
2017-08-07T21:24:52.832Z,96418.91
2017-08-07T21:27:18.662Z,96415.30
2017-08-07T21:29:44.643Z,96411.55
2017-08-07T21:32:10.494Z,96414.64
2017-08-07T21:34:36.311Z,96411.97
2017-08-07T21:37:02.155Z,96414.64
2017-08-07T21:39:28.065Z,96412.60
2017-08-07T21:41:53.904Z,96409.70
2017-08-07T21:44:19.728Z,96413.19
2017-08-07T21:46:46.396Z,96405.91
2017-08-07T21:49:12.253Z,96411.27
2017-08-07T21:51:38.224Z,96403.76
2017-08-07T21:54:04.043Z,96402.94
2017-08-07T21:56:29.896Z,96406.36
2017-08-07T21:58:55.744Z,96401.48
2017-08-07T22:01:21.692Z,96403.61
2017-08-07T22:03:47.561Z,96402.81
2017-08-07T22:06:13.419Z,96396.67
2017-08-07T22:08:39.318Z,96400.06
2017-08-07T22:11:05.191Z,96397.44
2017-08-07T22:13:31.040Z,96395.16
2017-08-07T22:15:56.856Z,96398.52
2017-08-07T22:18:22.715Z,96397.23
2017-08-07T22:20:48.609Z,96394.93
2017-08-07T22:23:15.092Z,96395.20
2017-08-07T22:25:40.952Z,96391.57
2017-08-07T22:28:06.795Z,96387.80
2017-08-07T22:30:32.728Z,96385.55
2017-08-07T22:32:58.620Z,96381.88
2017-08-07T22:35:24.465Z,96383.25
2017-08-07T22:37:50.417Z,96390.91
2017-08-07T22:40:16.243Z,96389.88
2017-08-07T22:42:42.076Z,96390.91
2017-08-07T22:45:07.956Z,96384.33
2017-08-07T22:47:33.843Z,96386.86
2017-08-07T22:49:59.668Z,96382.45
2017-08-07T22:52:25.537Z,96368.41
2017-08-07T22:54:51.409Z,96369.61
2017-08-07T22:57:17.424Z,96368.20
2017-08-07T22:59:43.393Z,96360.20
2017-08-07T23:02:09.318Z,96366.88
2017-08-07T23:04:35.196Z,96353.45
2017-08-07T23:07:01.019Z,96353.91
2017-08-07T23:09:26.895Z,96359.76
2017-08-07T23:11:52.763Z,96364.37
2017-08-07T23:14:18.673Z,96361.91
2017-08-07T23:16:44.563Z,96363.48
2017-08-07T23:19:10.419Z,96359.34
2017-08-07T23:21:36.399Z,96362.02
2017-08-07T23:24:02.224Z,96368.95
2017-08-07T23:26:28.057Z,96365.75
2017-08-07T23:28:53.911Z,96366.17
2017-08-07T23:31:19.824Z,96367.04
2017-08-07T23:33:45.701Z,96360.25
2017-08-07T23:36:11.532Z,96358.70
2017-08-07T23:38:37.355Z,96359.08
2017-08-07T23:41:03.218Z,96344.95
2017-08-07T23:43:29.111Z,96337.60
2017-08-07T23:45:54.935Z,96337.91
2017-08-07T23:48:20.778Z,96322.44
2017-08-07T23:50:46.643Z,96308.21
2017-08-07T23:53:12.668Z,96309.04
2017-08-07T23:55:38.500Z,96302.69
2017-08-07T23:58:04.379Z,96300.36
